AFR7605 LFKC-LFPO
Flight info
| Callsign | AFR7605 |
|---|---|
| Flight time | 1h 28m |
| Altitude | 18000 |
| Route | MEGER Z911 OLETI M858 UNITA L50 NEDED/N0442F340 DCT TOP DCT AOSTA DCT ORSUD DCT MOLUS DCT UNKIR DCT DJL |
| Aircraft | A321/M-SDE3FGHIRWY/LB1 |
Departure
| Time | 2026-05-07 22:50 |
|---|---|
| Airport | Calvi Sainte Catherine Airport (LFKC) |
Arrival
| Time | 2026-05-08 00:18 |
|---|---|
| Airport | Paris-Orly Airport (LFPO) |
| Time | Latitude | Longitude | Altitude | Speed | Heading |
|---|---|---|---|---|---|
| 2026-05-07 22:28 | 42.52511 | 8.79097 | 180 ft | 0 kts | 301° |
| 2026-05-07 22:45 | 42.52516 | 8.79087 | 180 ft | 2 kts | 307° |
| 2026-05-07 22:45 | 42.52528 | 8.79094 | 179 ft | 4 kts | 60° |
| 2026-05-07 22:46 | 42.52524 | 8.79134 | 179 ft | 4 kts | 116° |
| 2026-05-07 22:46 | 42.52508 | 8.79154 | 180 ft | 1 kts | 153° |
| 2026-05-07 22:46 | 42.52501 | 8.79157 | 181 ft | 3 kts | 168° |
| 2026-05-07 22:46 | 42.52441 | 8.79192 | 183 ft | 11 kts | 116° |
| 2026-05-07 22:47 | 42.52433 | 8.79277 | 184 ft | 0 kts | 97° |
| 2026-05-07 22:47 | 42.52432 | 8.79279 | 184 ft | 0 kts | 119° |
| 2026-05-07 22:47 | 42.52398 | 8.79299 | 185 ft | 9 kts | 174° |
| 2026-05-07 22:48 | 42.52306 | 8.79299 | 189 ft | 16 kts | 181° |
| 2026-05-07 22:48 | 42.52177 | 8.79301 | 194 ft | 18 kts | 179° |
| 2026-05-07 22:48 | 42.52068 | 8.79275 | 198 ft | 8 kts | 167° |
| 2026-05-07 22:48 | 42.52078 | 8.79298 | 198 ft | 6 kts | 15° |
| 2026-05-07 22:49 | 42.52131 | 8.79304 | 196 ft | 9 kts | 359° |
| 2026-05-07 22:49 | 42.52276 | 8.79302 | 191 ft | 54 kts | 359° |
| 2026-05-07 22:49 | 42.52969 | 8.79300 | 154 ft | 141 kts | 359° |
| 2026-05-07 22:49 | 42.54140 | 8.79289 | 500 ft | 177 kts | 360° |
| 2026-05-07 22:50 | 42.55363 | 8.79274 | 1377 ft | 180 kts | 1° |
| 2026-05-07 22:50 | 42.56588 | 8.79262 | 2191 ft | 177 kts | 2° |
| 2026-05-07 22:50 | 42.57818 | 8.79258 | 2725 ft | 182 kts | 2° |
| 2026-05-07 22:50 | 42.59158 | 8.79258 | 3060 ft | 199 kts | 2° |
| 2026-05-07 22:51 | 42.60568 | 8.79261 | 3447 ft | 213 kts | 3° |
| 2026-05-07 22:51 | 42.62046 | 8.79755 | 3698 ft | 231 kts | 32° |
| 2026-05-07 22:51 | 42.63197 | 8.81370 | 4058 ft | 246 kts | 63° |
| 2026-05-07 22:51 | 42.63919 | 8.83509 | 4553 ft | 259 kts | 61° |
| 2026-05-07 22:52 | 42.65046 | 8.85480 | 5147 ft | 267 kts | 48° |
| 2026-05-07 22:52 | 42.66283 | 8.87331 | 5850 ft | 271 kts | 48° |
| 2026-05-07 22:52 | 42.67574 | 8.89234 | 6536 ft | 275 kts | 47° |
| 2026-05-07 22:52 | 42.68872 | 8.91124 | 7212 ft | 279 kts | 47° |
| 2026-05-07 22:53 | 42.70216 | 8.93064 | 7904 ft | 283 kts | 47° |
| 2026-05-07 22:53 | 42.71554 | 8.94988 | 8573 ft | 286 kts | 47° |
| 2026-05-07 22:53 | 42.72938 | 8.96973 | 9231 ft | 290 kts | 47° |
| 2026-05-07 22:53 | 42.74327 | 8.98966 | 9891 ft | 293 kts | 47° |
| 2026-05-07 22:54 | 42.75727 | 9.00972 | 10451 ft | 300 kts | 47° |
| 2026-05-07 22:54 | 42.77203 | 9.03089 | 10756 ft | 316 kts | 47° |
| 2026-05-07 22:54 | 42.78742 | 9.05298 | 11102 ft | 330 kts | 47° |
| 2026-05-07 22:54 | 42.80338 | 9.07589 | 11664 ft | 335 kts | 47° |
| 2026-05-07 22:55 | 42.81942 | 9.09895 | 12298 ft | 337 kts | 47° |
| 2026-05-07 22:55 | 42.83539 | 9.12191 | 12923 ft | 340 kts | 47° |
| 2026-05-07 22:55 | 42.85175 | 9.14547 | 13522 ft | 342 kts | 47° |
| 2026-05-07 22:55 | 42.86797 | 9.16883 | 14110 ft | 345 kts | 47° |
| 2026-05-07 22:56 | 42.88509 | 9.19223 | 14644 ft | 349 kts | 39° |
| 2026-05-07 22:56 | 42.90659 | 9.20739 | 15103 ft | 354 kts | 14° |
| 2026-05-07 22:56 | 42.93108 | 9.21002 | 15642 ft | 356 kts | 355° |
| 2026-05-07 22:56 | 42.95583 | 9.20762 | 16173 ft | 359 kts | 354° |
| 2026-05-07 22:57 | 42.98083 | 9.20521 | 16698 ft | 362 kts | 354° |
| 2026-05-07 22:57 | 43.00620 | 9.20287 | 17034 ft | 371 kts | 355° |
| 2026-05-07 22:57 | 43.03225 | 9.20056 | 17358 ft | 379 kts | 355° |
| 2026-05-07 22:57 | 43.05846 | 9.19831 | 17841 ft | 382 kts | 355° |
| 2026-05-07 22:58 | 43.08513 | 9.19607 | 18349 ft | 384 kts | 355° |
| 2026-05-07 22:58 | 43.11185 | 9.19384 | 18820 ft | 387 kts | 355° |
| 2026-05-07 22:58 | 43.13864 | 9.19162 | 19272 ft | 390 kts | 354° |
| 2026-05-07 22:58 | 43.16592 | 9.18936 | 19713 ft | 393 kts | 354° |
| 2026-05-07 22:59 | 43.19342 | 9.18708 | 20152 ft | 396 kts | 354° |
| 2026-05-07 22:59 | 43.22120 | 9.18478 | 20580 ft | 399 kts | 354° |
| 2026-05-07 22:59 | 43.24900 | 9.18245 | 21003 ft | 402 kts | 354° |
| 2026-05-07 22:59 | 43.27681 | 9.18013 | 21426 ft | 405 kts | 354° |
| 2026-05-07 23:00 | 43.30493 | 9.17752 | 21835 ft | 407 kts | 352° |
| 2026-05-07 23:00 | 43.33305 | 9.17274 | 22243 ft | 409 kts | 348° |
| 2026-05-07 23:00 | 43.36105 | 9.16531 | 22640 ft | 410 kts | 344° |
| 2026-05-07 23:00 | 43.38894 | 9.15597 | 23050 ft | 412 kts | 343° |
| 2026-05-07 23:01 | 43.41675 | 9.14626 | 23454 ft | 414 kts | 343° |
| 2026-05-07 23:01 | 43.44464 | 9.13645 | 23841 ft | 416 kts | 343° |
| 2026-05-07 23:01 | 43.47267 | 9.12660 | 24222 ft | 419 kts | 342° |
| 2026-05-07 23:01 | 43.50119 | 9.11662 | 24594 ft | 422 kts | 342° |
| 2026-05-07 23:02 | 43.52964 | 9.10666 | 24969 ft | 424 kts | 342° |
| 2026-05-07 23:02 | 43.55808 | 9.09671 | 25339 ft | 426 kts | 342° |
| 2026-05-07 23:02 | 43.58688 | 9.08665 | 25691 ft | 428 kts | 342° |
| 2026-05-07 23:02 | 43.61575 | 9.07656 | 26026 ft | 431 kts | 342° |
| 2026-05-07 23:03 | 43.64493 | 9.06634 | 26343 ft | 434 kts | 342° |
| 2026-05-07 23:03 | 43.67421 | 9.05607 | 26658 ft | 436 kts | 342° |
| 2026-05-07 23:03 | 43.70365 | 9.04575 | 26978 ft | 439 kts | 341° |
| 2026-05-07 23:03 | 43.73335 | 9.03531 | 27287 ft | 441 kts | 341° |
| 2026-05-07 23:04 | 43.76324 | 9.02481 | 27597 ft | 444 kts | 341° |
| 2026-05-07 23:04 | 43.79338 | 9.01630 | 27884 ft | 449 kts | 347° |
| 2026-05-07 23:04 | 43.82464 | 9.01233 | 28171 ft | 455 kts | 354° |
| 2026-05-07 23:04 | 43.85672 | 9.01326 | 28447 ft | 461 kts | 360° |
| 2026-05-07 23:05 | 43.88871 | 9.01688 | 28712 ft | 464 kts | 1° |
| 2026-05-07 23:05 | 43.92061 | 9.01603 | 28956 ft | 459 kts | 347° |
| 2026-05-07 23:05 | 43.95107 | 9.00492 | 29339 ft | 448 kts | 333° |
| 2026-05-07 23:05 | 43.97813 | 8.98536 | 29741 ft | 438 kts | 320° |
| 2026-05-07 23:06 | 44.00215 | 8.95945 | 29987 ft | 433 kts | 314° |
| 2026-05-07 23:06 | 44.04783 | 8.90535 | 29987 ft | 432 kts | 314° |
| 2026-05-07 23:07 | 44.09354 | 8.85143 | 29994 ft | 433 kts | 314° |
| 2026-05-07 23:07 | 44.13948 | 8.79774 | 30000 ft | 432 kts | 314° |
| 2026-05-07 23:08 | 44.18531 | 8.74388 | 30008 ft | 431 kts | 314° |
| 2026-05-07 23:08 | 44.23103 | 8.69009 | 30005 ft | 431 kts | 314° |
| 2026-05-07 23:09 | 44.27647 | 8.63666 | 30012 ft | 431 kts | 314° |
| 2026-05-07 23:09 | 44.32314 | 8.58158 | 30016 ft | 446 kts | 314° |
| 2026-05-07 23:10 | 44.37098 | 8.52506 | 30016 ft | 459 kts | 314° |
| 2026-05-07 23:10 | 44.42030 | 8.46668 | 30019 ft | 464 kts | 314° |
| 2026-05-07 23:11 | 44.46934 | 8.40848 | 30024 ft | 464 kts | 314° |
| 2026-05-07 23:11 | 44.51842 | 8.35007 | 30024 ft | 464 kts | 315° |
| 2026-05-07 23:12 | 44.56764 | 8.29141 | 30024 ft | 463 kts | 314° |
| 2026-05-07 23:12 | 44.61663 | 8.23286 | 30025 ft | 463 kts | 314° |
| 2026-05-07 23:13 | 44.66531 | 8.17454 | 30022 ft | 462 kts | 314° |
| 2026-05-07 23:13 | 44.71419 | 8.11585 | 30023 ft | 461 kts | 314° |
| 2026-05-07 23:14 | 44.76260 | 8.05775 | 30027 ft | 461 kts | 314° |
| 2026-05-07 23:14 | 44.81120 | 7.99929 | 30029 ft | 461 kts | 314° |
| 2026-05-07 23:15 | 44.85970 | 7.94082 | 30025 ft | 460 kts | 314° |
| 2026-05-07 23:15 | 44.91071 | 7.88567 | 30024 ft | 465 kts | 321° |
| 2026-05-07 23:16 | 44.96641 | 7.83942 | 30026 ft | 470 kts | 328° |
| 2026-05-07 23:16 | 45.02630 | 7.80169 | 30035 ft | 473 kts | 332° |
| 2026-05-07 23:17 | 45.08742 | 7.76610 | 30038 ft | 473 kts | 333° |
| 2026-05-07 23:17 | 45.14825 | 7.73065 | 30037 ft | 473 kts | 333° |
| 2026-05-07 23:18 | 45.20891 | 7.69509 | 30036 ft | 473 kts | 332° |
| 2026-05-07 23:18 | 45.26974 | 7.65926 | 30038 ft | 473 kts | 332° |
| 2026-05-07 23:19 | 45.33030 | 7.62350 | 30045 ft | 473 kts | 332° |
| 2026-05-07 23:19 | 45.39079 | 7.58769 | 30056 ft | 473 kts | 333° |
| 2026-05-07 23:20 | 45.45166 | 7.55159 | 30073 ft | 473 kts | 332° |
| 2026-05-07 23:20 | 45.51240 | 7.51548 | 30097 ft | 474 kts | 333° |
| 2026-05-07 23:21 | 45.57312 | 7.47930 | 30104 ft | 474 kts | 333° |
| 2026-05-07 23:21 | 45.63415 | 7.44285 | 30111 ft | 475 kts | 333° |
| 2026-05-07 23:22 | 45.69469 | 7.40664 | 30116 ft | 474 kts | 333° |
| 2026-05-07 23:22 | 45.75556 | 7.36930 | 30119 ft | 473 kts | 330° |
| 2026-05-07 23:23 | 45.81309 | 7.32550 | 30104 ft | 469 kts | 324° |
| 2026-05-07 23:23 | 45.86748 | 7.27362 | 30081 ft | 466 kts | 320° |
| 2026-05-07 23:24 | 45.91997 | 7.22000 | 30070 ft | 467 kts | 320° |
| 2026-05-07 23:24 | 45.97310 | 7.16566 | 30070 ft | 467 kts | 320° |
| 2026-05-07 23:25 | 46.02581 | 7.11165 | 30073 ft | 468 kts | 320° |
| 2026-05-07 23:25 | 46.07857 | 7.05752 | 30070 ft | 468 kts | 320° |
| 2026-05-07 23:26 | 46.13149 | 7.00306 | 30070 ft | 467 kts | 320° |
| 2026-05-07 23:26 | 46.18447 | 6.94846 | 30087 ft | 467 kts | 320° |
| 2026-05-07 23:27 | 46.26348 | 6.86677 | 30096 ft | 468 kts | 320° |
| 2026-05-07 23:27 | 46.31657 | 6.81172 | 30081 ft | 468 kts | 320° |
| 2026-05-07 23:28 | 46.36903 | 6.75718 | 30082 ft | 468 kts | 320° |
| 2026-05-07 23:28 | 46.41929 | 6.69753 | 30072 ft | 464 kts | 312° |
| 2026-05-07 23:29 | 46.46130 | 6.62774 | 30067 ft | 459 kts | 303° |
| 2026-05-07 23:29 | 46.49510 | 6.54990 | 30052 ft | 457 kts | 297° |
| 2026-05-07 23:30 | 46.52660 | 6.46984 | 30046 ft | 457 kts | 297° |
| 2026-05-07 23:30 | 46.55803 | 6.38961 | 30038 ft | 458 kts | 297° |
| 2026-05-07 23:31 | 46.58951 | 6.30926 | 30037 ft | 458 kts | 296° |
| 2026-05-07 23:31 | 46.62089 | 6.22907 | 30048 ft | 459 kts | 296° |
| 2026-05-07 23:32 | 46.65242 | 6.14825 | 30044 ft | 460 kts | 296° |
| 2026-05-07 23:32 | 46.68389 | 6.06738 | 30042 ft | 460 kts | 296° |
| 2026-05-07 23:33 | 46.71534 | 5.98638 | 30036 ft | 460 kts | 296° |
| 2026-05-07 23:33 | 46.74669 | 5.90534 | 30035 ft | 460 kts | 296° |
| 2026-05-07 23:34 | 46.77813 | 5.82391 | 30024 ft | 461 kts | 297° |
| 2026-05-07 23:34 | 46.81325 | 5.74589 | 30023 ft | 464 kts | 304° |
| 2026-05-07 23:35 | 46.85487 | 5.67375 | 30025 ft | 468 kts | 311° |
| 2026-05-07 23:35 | 46.90176 | 5.60741 | 30030 ft | 469 kts | 314° |
| 2026-05-07 23:36 | 46.94942 | 5.54228 | 30032 ft | 469 kts | 314° |
| 2026-05-07 23:36 | 46.99670 | 5.47741 | 30034 ft | 469 kts | 314° |
| 2026-05-07 23:37 | 47.04430 | 5.41177 | 30037 ft | 469 kts | 314° |
| 2026-05-07 23:37 | 47.09150 | 5.34647 | 30040 ft | 469 kts | 314° |
| 2026-05-07 23:38 | 47.13905 | 5.28055 | 30039 ft | 469 kts | 314° |
| 2026-05-07 23:38 | 47.18625 | 5.21493 | 30032 ft | 469 kts | 314° |
| 2026-05-07 23:39 | 47.23262 | 5.15038 | 30042 ft | 443 kts | 314° |
| 2026-05-07 23:39 | 47.27625 | 5.08857 | 30039 ft | 431 kts | 311° |
| 2026-05-07 23:40 | 47.31768 | 5.02515 | 30039 ft | 431 kts | 311° |
| 2026-05-07 23:40 | 47.35881 | 4.96159 | 30045 ft | 431 kts | 311° |
| 2026-05-07 23:41 | 47.40022 | 4.89763 | 30012 ft | 428 kts | 311° |
| 2026-05-07 23:41 | 47.42044 | 4.86639 | 29766 ft | 421 kts | 311° |
| 2026-05-07 23:41 | 47.44041 | 4.83549 | 29261 ft | 417 kts | 311° |
| 2026-05-07 23:42 | 47.46055 | 4.80427 | 28494 ft | 419 kts | 311° |
| 2026-05-07 23:42 | 47.48053 | 4.77323 | 27688 ft | 422 kts | 311° |
| 2026-05-07 23:42 | 47.50057 | 4.74211 | 27101 ft | 418 kts | 311° |
| 2026-05-07 23:42 | 47.52043 | 4.71122 | 26557 ft | 414 kts | 311° |
| 2026-05-07 23:43 | 47.54016 | 4.68050 | 25989 ft | 411 kts | 311° |
| 2026-05-07 23:43 | 47.55960 | 4.65021 | 25426 ft | 407 kts | 311° |
| 2026-05-07 23:43 | 47.57896 | 4.62001 | 24863 ft | 404 kts | 311° |
| 2026-05-07 23:43 | 47.59828 | 4.58985 | 24297 ft | 401 kts | 311° |
| 2026-05-07 23:44 | 47.61721 | 4.56025 | 23736 ft | 398 kts | 311° |
| 2026-05-07 23:44 | 47.63618 | 4.53056 | 23169 ft | 395 kts | 311° |
| 2026-05-07 23:44 | 47.65500 | 4.50107 | 22610 ft | 392 kts | 311° |
| 2026-05-07 23:44 | 47.67341 | 4.47221 | 22072 ft | 389 kts | 311° |
| 2026-05-07 23:45 | 47.69208 | 4.44289 | 21533 ft | 386 kts | 311° |
| 2026-05-07 23:45 | 47.71041 | 4.41408 | 21003 ft | 384 kts | 311° |
| 2026-05-07 23:45 | 47.72852 | 4.38559 | 20480 ft | 381 kts | 311° |
| 2026-05-07 23:45 | 47.74668 | 4.35699 | 19963 ft | 378 kts | 311° |
| 2026-05-07 23:46 | 47.76469 | 4.32862 | 19459 ft | 375 kts | 311° |
| 2026-05-07 23:46 | 47.78246 | 4.30056 | 18982 ft | 372 kts | 311° |
| 2026-05-07 23:46 | 47.80014 | 4.27262 | 18512 ft | 369 kts | 311° |
| 2026-05-07 23:46 | 47.81747 | 4.24520 | 18044 ft | 366 kts | 311° |
| 2026-05-07 23:47 | 47.83474 | 4.21783 | 17582 ft | 363 kts | 311° |
| 2026-05-07 23:47 | 47.85187 | 4.19066 | 17110 ft | 361 kts | 311° |
| 2026-05-07 23:47 | 47.86801 | 4.16223 | 16617 ft | 357 kts | 303° |
| 2026-05-07 23:47 | 47.88054 | 4.13075 | 16139 ft | 353 kts | 294° |
| 2026-05-07 23:48 | 47.88940 | 4.09674 | 15669 ft | 350 kts | 285° |
| 2026-05-07 23:48 | 47.89510 | 4.06209 | 15212 ft | 347 kts | 281° |
| 2026-05-07 23:48 | 47.90015 | 4.02703 | 14753 ft | 345 kts | 281° |
| 2026-05-07 23:48 | 47.90514 | 3.99181 | 14283 ft | 344 kts | 281° |
| 2026-05-07 23:49 | 47.91005 | 3.95730 | 13805 ft | 342 kts | 281° |
| 2026-05-07 23:49 | 47.91493 | 3.92321 | 13349 ft | 340 kts | 281° |
| 2026-05-07 23:49 | 47.91987 | 3.88894 | 12879 ft | 338 kts | 281° |
| 2026-05-07 23:49 | 47.92483 | 3.85452 | 12388 ft | 336 kts | 281° |
| 2026-05-07 23:50 | 47.92970 | 3.82082 | 11932 ft | 334 kts | 281° |
| 2026-05-07 23:50 | 47.93454 | 3.78722 | 11475 ft | 331 kts | 281° |
| 2026-05-07 23:50 | 47.93927 | 3.75431 | 11013 ft | 329 kts | 281° |
| 2026-05-07 23:50 | 47.94407 | 3.72085 | 10546 ft | 326 kts | 281° |
| 2026-05-07 23:51 | 47.94874 | 3.68818 | 10350 ft | 314 kts | 281° |
| 2026-05-07 23:51 | 47.95318 | 3.65712 | 10148 ft | 304 kts | 281° |
| 2026-05-07 23:51 | 47.95749 | 3.62688 | 9966 ft | 294 kts | 281° |
| 2026-05-07 23:51 | 47.96216 | 3.59766 | 9761 ft | 286 kts | 287° |
| 2026-05-07 23:52 | 47.96970 | 3.57051 | 9434 ft | 283 kts | 297° |
| 2026-05-07 23:52 | 47.98044 | 3.54585 | 9049 ft | 283 kts | 307° |
| 2026-05-07 23:52 | 47.99344 | 3.52436 | 8690 ft | 282 kts | 313° |
| 2026-05-07 23:52 | 48.00716 | 3.50360 | 8325 ft | 280 kts | 314° |
| 2026-05-07 23:53 | 48.02088 | 3.48303 | 7955 ft | 278 kts | 314° |
| 2026-05-07 23:53 | 48.03434 | 3.46275 | 7585 ft | 276 kts | 314° |
| 2026-05-07 23:53 | 48.04766 | 3.44258 | 7223 ft | 274 kts | 314° |
| 2026-05-07 23:53 | 48.06099 | 3.42231 | 6857 ft | 272 kts | 314° |
| 2026-05-07 23:54 | 48.07408 | 3.40233 | 6496 ft | 270 kts | 314° |
| 2026-05-07 23:54 | 48.08728 | 3.38216 | 6134 ft | 268 kts | 314° |
| 2026-05-07 23:54 | 48.10025 | 3.36231 | 5764 ft | 267 kts | 314° |
| 2026-05-07 23:54 | 48.11316 | 3.34250 | 5388 ft | 266 kts | 314° |
| 2026-05-07 23:55 | 48.12614 | 3.32260 | 4998 ft | 266 kts | 314° |
| 2026-05-07 23:55 | 48.13895 | 3.30292 | 4620 ft | 265 kts | 314° |
| 2026-05-07 23:55 | 48.15193 | 3.28299 | 4230 ft | 265 kts | 314° |
| 2026-05-07 23:55 | 48.16470 | 3.26336 | 3854 ft | 264 kts | 314° |
| 2026-05-07 23:56 | 48.17743 | 3.24375 | 3485 ft | 264 kts | 315° |
| 2026-05-07 23:56 | 48.19024 | 3.22401 | 3114 ft | 263 kts | 315° |
| 2026-05-07 23:56 | 48.20284 | 3.20461 | 2957 ft | 262 kts | 315° |
| 2026-05-07 23:56 | 48.21558 | 3.18503 | 2954 ft | 264 kts | 315° |
| 2026-05-07 23:57 | 48.22841 | 3.16533 | 2952 ft | 264 kts | 315° |
| 2026-05-07 23:57 | 48.24126 | 3.14555 | 2950 ft | 264 kts | 315° |
| 2026-05-07 23:57 | 48.25400 | 3.12592 | 2949 ft | 264 kts | 315° |
| 2026-05-07 23:57 | 48.26696 | 3.10594 | 2950 ft | 264 kts | 315° |
| 2026-05-07 23:58 | 48.27975 | 3.08620 | 2950 ft | 264 kts | 315° |
| 2026-05-07 23:58 | 48.29268 | 3.06624 | 2949 ft | 264 kts | 315° |
| 2026-05-07 23:58 | 48.30543 | 3.04652 | 2948 ft | 264 kts | 315° |
| 2026-05-07 23:58 | 48.31813 | 3.02688 | 2947 ft | 264 kts | 315° |
| 2026-05-07 23:59 | 48.33093 | 3.00706 | 2948 ft | 264 kts | 315° |
| 2026-05-07 23:59 | 48.34376 | 2.98716 | 2949 ft | 264 kts | 315° |
| 2026-05-07 23:59 | 48.35647 | 2.96745 | 2951 ft | 265 kts | 315° |
| 2026-05-07 23:59 | 48.36941 | 2.94737 | 3248 ft | 272 kts | 315° |
| 2026-05-08 00:00 | 48.38242 | 2.92720 | 3758 ft | 267 kts | 315° |
| 2026-05-08 00:00 | 48.39526 | 2.90725 | 3947 ft | 267 kts | 315° |
| 2026-05-08 00:00 | 48.40816 | 2.88716 | 3945 ft | 262 kts | 315° |
| 2026-05-08 00:00 | 48.42051 | 2.86791 | 3939 ft | 247 kts | 315° |
| 2026-05-08 00:01 | 48.43210 | 2.84982 | 3932 ft | 232 kts | 315° |
| 2026-05-08 00:01 | 48.44313 | 2.83259 | 3944 ft | 229 kts | 314° |
| 2026-05-08 00:01 | 48.45217 | 2.81287 | 3947 ft | 230 kts | 295° |
| 2026-05-08 00:01 | 48.45670 | 2.78954 | 3955 ft | 231 kts | 277° |
| 2026-05-08 00:02 | 48.45776 | 2.76542 | 3963 ft | 231 kts | 272° |
| 2026-05-08 00:02 | 48.45820 | 2.74188 | 3947 ft | 220 kts | 272° |
| 2026-05-08 00:02 | 48.45861 | 2.71928 | 3950 ft | 216 kts | 272° |
| 2026-05-08 00:02 | 48.45912 | 2.69655 | 3954 ft | 216 kts | 272° |
| 2026-05-08 00:03 | 48.45971 | 2.67388 | 3957 ft | 215 kts | 272° |
| 2026-05-08 00:03 | 48.46032 | 2.65143 | 3963 ft | 215 kts | 272° |
| 2026-05-08 00:03 | 48.46103 | 2.62880 | 3965 ft | 216 kts | 274° |
| 2026-05-08 00:03 | 48.46203 | 2.60623 | 3968 ft | 215 kts | 274° |
| 2026-05-08 00:04 | 48.46310 | 2.58379 | 3969 ft | 215 kts | 274° |
| 2026-05-08 00:04 | 48.46417 | 2.56120 | 3966 ft | 215 kts | 274° |
| 2026-05-08 00:04 | 48.46522 | 2.53893 | 3962 ft | 216 kts | 274° |
| 2026-05-08 00:04 | 48.46627 | 2.51652 | 4058 ft | 216 kts | 274° |
| 2026-05-08 00:05 | 48.46732 | 2.49363 | 4020 ft | 216 kts | 274° |
| 2026-05-08 00:05 | 48.46834 | 2.47113 | 3984 ft | 216 kts | 274° |
| 2026-05-08 00:05 | 48.46936 | 2.44857 | 3970 ft | 216 kts | 274° |
| 2026-05-08 00:05 | 48.47037 | 2.42607 | 3967 ft | 216 kts | 274° |
| 2026-05-08 00:06 | 48.47138 | 2.40368 | 3963 ft | 216 kts | 274° |
| 2026-05-08 00:06 | 48.47238 | 2.38116 | 3962 ft | 216 kts | 274° |
| 2026-05-08 00:06 | 48.47338 | 2.35860 | 3956 ft | 216 kts | 274° |
| 2026-05-08 00:06 | 48.47439 | 2.33579 | 3955 ft | 216 kts | 273° |
| 2026-05-08 00:07 | 48.47538 | 2.31315 | 3955 ft | 217 kts | 273° |
| 2026-05-08 00:07 | 48.47637 | 2.29055 | 3957 ft | 217 kts | 273° |
| 2026-05-08 00:07 | 48.47735 | 2.26783 | 3952 ft | 217 kts | 273° |
| 2026-05-08 00:07 | 48.47833 | 2.24528 | 3948 ft | 217 kts | 273° |
| 2026-05-08 00:08 | 48.47932 | 2.22249 | 3945 ft | 217 kts | 273° |
| 2026-05-08 00:08 | 48.48030 | 2.19970 | 3947 ft | 218 kts | 273° |
| 2026-05-08 00:08 | 48.48127 | 2.17701 | 3948 ft | 218 kts | 273° |
| 2026-05-08 00:08 | 48.48224 | 2.15413 | 3949 ft | 218 kts | 273° |
| 2026-05-08 00:09 | 48.48318 | 2.13155 | 3946 ft | 218 kts | 273° |
| 2026-05-08 00:09 | 48.48415 | 2.10863 | 3945 ft | 218 kts | 273° |
| 2026-05-08 00:09 | 48.48523 | 2.08596 | 3941 ft | 218 kts | 277° |
| 2026-05-08 00:09 | 48.49114 | 2.06597 | 3887 ft | 202 kts | 317° |
| 2026-05-08 00:10 | 48.50291 | 2.05630 | 3932 ft | 194 kts | 340° |
| 2026-05-08 00:10 | 48.51562 | 2.04929 | 3982 ft | 193 kts | 341° |
| 2026-05-08 00:10 | 48.52829 | 2.04187 | 3968 ft | 194 kts | 339° |
| 2026-05-08 00:10 | 48.54066 | 2.03382 | 3956 ft | 194 kts | 337° |
| 2026-05-08 00:11 | 48.55291 | 2.02528 | 3947 ft | 194 kts | 336° |
| 2026-05-08 00:11 | 48.56500 | 2.01655 | 3945 ft | 195 kts | 336° |
| 2026-05-08 00:11 | 48.57716 | 2.00765 | 3948 ft | 195 kts | 336° |
| 2026-05-08 00:11 | 48.59021 | 2.00262 | 3939 ft | 192 kts | 0° |
| 2026-05-08 00:12 | 48.60298 | 2.00683 | 3939 ft | 188 kts | 30° |
| 2026-05-08 00:12 | 48.61264 | 2.01968 | 3956 ft | 185 kts | 52° |
| 2026-05-08 00:12 | 48.61989 | 2.03564 | 3964 ft | 185 kts | 59° |
| 2026-05-08 00:12 | 48.62653 | 2.05226 | 3956 ft | 184 kts | 61° |
| 2026-05-08 00:13 | 48.63280 | 2.06902 | 3946 ft | 184 kts | 62° |
| 2026-05-08 00:13 | 48.63898 | 2.08615 | 3772 ft | 184 kts | 63° |
| 2026-05-08 00:13 | 48.64497 | 2.10316 | 3520 ft | 182 kts | 63° |
| 2026-05-08 00:13 | 48.65080 | 2.11980 | 3265 ft | 173 kts | 64° |
| 2026-05-08 00:14 | 48.65608 | 2.13495 | 3014 ft | 160 kts | 64° |
| 2026-05-08 00:14 | 48.66130 | 2.14991 | 2807 ft | 159 kts | 64° |
| 2026-05-08 00:14 | 48.66640 | 2.16453 | 2608 ft | 159 kts | 64° |
| 2026-05-08 00:14 | 48.67160 | 2.17938 | 2404 ft | 158 kts | 64° |
| 2026-05-08 00:15 | 48.67672 | 2.19399 | 2200 ft | 158 kts | 64° |
| 2026-05-08 00:15 | 48.68189 | 2.20873 | 1987 ft | 157 kts | 64° |
| 2026-05-08 00:15 | 48.68695 | 2.22309 | 1775 ft | 157 kts | 65° |
| 2026-05-08 00:15 | 48.69204 | 2.23755 | 1550 ft | 150 kts | 64° |
| 2026-05-08 00:16 | 48.69684 | 2.25117 | 1329 ft | 143 kts | 64° |
| 2026-05-08 00:16 | 48.70150 | 2.26445 | 1146 ft | 142 kts | 63° |
| 2026-05-08 00:16 | 48.70609 | 2.27752 | 962 ft | 142 kts | 63° |
| 2026-05-08 00:16 | 48.71073 | 2.29062 | 767 ft | 141 kts | 63° |
| 2026-05-08 00:17 | 48.71537 | 2.30373 | 575 ft | 141 kts | 62° |
| 2026-05-08 00:17 | 48.71996 | 2.31690 | 387 ft | 141 kts | 62° |
| 2026-05-08 00:17 | 48.72448 | 2.32969 | 291 ft | 129 kts | 62° |
| 2026-05-08 00:17 | 48.72786 | 2.33929 | 286 ft | 67 kts | 62° |
| 2026-05-08 00:18 | 48.72947 | 2.34385 | 284 ft | 45 kts | 61° |
| 2026-05-08 00:18 | 48.73015 | 2.34825 | 287 ft | 41 kts | 81° |
| 2026-05-08 00:18 | 48.73024 | 2.35196 | 290 ft | 29 kts | 114° |
| 2026-05-08 00:18 | 48.72907 | 2.35351 | 290 ft | 20 kts | 121° |
| 2026-05-08 00:19 | 48.72901 | 2.35516 | 290 ft | 13 kts | 118° |
| 2026-05-08 00:19 | 48.72824 | 2.35572 | 290 ft | 12 kts | 163° |
| 2026-05-08 00:19 | 48.72775 | 2.35646 | 290 ft | 7 kts | 110° |
| 2026-05-08 00:19 | 48.72744 | 2.35693 | 290 ft | 6 kts | 145° |
| 2026-05-08 00:20 | 48.72731 | 2.35706 | 290 ft | 0 kts | 146° |